sensor_id;sensor_type;location;lat;lon;timestamp;P1;durP1;ratioP1;P2;durP2;ratioP2
15708;SDS011;7954;51.914;8.420;2023-11-19T00:02:26;1.17;;;1.17;;
15708;SDS011;7954;51.914;8.420;2023-11-19T00:04:54;1.10;;;1.10;;
15708;SDS011;7954;51.914;8.420;2023-11-19T00:07:24;1.17;;;1.10;;
15708;SDS011;7954;51.914;8.420;2023-11-19T00:10:00;1.50;;;1.40;;
15708;SDS011;7954;51.914;8.420;2023-11-19T00:12:37;1.10;;;1.10;;
15708;SDS011;7954;51.914;8.420;2023-11-19T00:15:05;1.40;;;1.30;;
15708;SDS011;7954;51.914;8.420;2023-11-19T00:17:35;1.23;;;1.23;;
15708;SDS011;7954;51.914;8.420;2023-11-19T00:20:03;1.47;;;1.37;;
15708;SDS011;7954;51.914;8.420;2023-11-19T00:22:34;1.83;;;1.40;;
15708;SDS011;7954;51.914;8.420;2023-11-19T00:25:02;1.33;;;1.27;;
15708;SDS011;7954;51.914;8.420;2023-11-19T00:27:30;1.37;;;1.27;;
15708;SDS011;7954;51.914;8.420;2023-11-19T00:29:58;1.40;;;1.30;;
15708;SDS011;7954;51.914;8.420;2023-11-19T00:32:26;1.17;;;1.10;;
15708;SDS011;7954;51.914;8.420;2023-11-19T00:34:55;1.00;;;1.00;;
15708;SDS011;7954;51.914;8.420;2023-11-19T00:37:23;1.67;;;1.00;;
15708;SDS011;7954;51.914;8.420;2023-11-19T00:39:53;1.07;;;1.07;;
15708;SDS011;7954;51.914;8.420;2023-11-19T00:42:22;1.40;;;1.30;;
15708;SDS011;7954;51.914;8.420;2023-11-19T00:44:50;0.90;;;0.90;;
15708;SDS011;7954;51.914;8.420;2023-11-19T00:47:19;1.00;;;1.00;;
15708;SDS011;7954;51.914;8.420;2023-11-19T00:49:47;1.17;;;1.17;;
15708;SDS011;7954;51.914;8.420;2023-11-19T00:52:16;1.70;;;1.20;;
15708;SDS011;7954;51.914;8.420;2023-11-19T00:54:45;1.20;;;1.10;;
15708;SDS011;7954;51.914;8.420;2023-11-19T00:57:14;1.10;;;1.10;;
15708;SDS011;7954;51.914;8.420;2023-11-19T00:59:42;1.30;;;1.20;;
15708;SDS011;7954;51.914;8.420;2023-11-19T01:02:11;1.47;;;1.30;;
15708;SDS011;7954;51.914;8.420;2023-11-19T01:04:40;1.10;;;1.10;;
15708;SDS011;7954;51.914;8.420;2023-11-19T01:07:09;1.07;;;1.07;;
15708;SDS011;7954;51.914;8.420;2023-11-19T01:09:41;1.87;;;1.30;;
15708;SDS011;7954;51.914;8.420;2023-11-19T01:12:10;1.03;;;1.03;;
15708;SDS011;7954;51.914;8.420;2023-11-19T01:14:40;2.17;;;1.30;;
15708;SDS011;7954;51.914;8.420;2023-11-19T01:17:08;2.07;;;1.40;;
15708;SDS011;7954;51.914;8.420;2023-11-19T01:19:36;1.20;;;1.20;;
15708;SDS011;7954;51.914;8.420;2023-11-19T01:22:03;1.50;;;1.40;;
15708;SDS011;7954;51.914;8.420;2023-11-19T01:24:31;1.30;;;1.20;;
15708;SDS011;7954;51.914;8.420;2023-11-19T01:27:00;2.63;;;1.43;;
15708;SDS011;7954;51.914;8.420;2023-11-19T01:29:28;1.53;;;1.43;;
15708;SDS011;7954;51.914;8.420;2023-11-19T01:31:57;1.50;;;1.40;;
15708;SDS011;7954;51.914;8.420;2023-11-19T01:34:25;1.40;;;1.30;;
15708;SDS011;7954;51.914;8.420;2023-11-19T01:36:53;1.23;;;1.23;;
15708;SDS011;7954;51.914;8.420;2023-11-19T01:39:20;1.50;;;1.40;;
15708;SDS011;7954;51.914;8.420;2023-11-19T01:41:49;2.27;;;1.33;;
15708;SDS011;7954;51.914;8.420;2023-11-19T01:44:16;1.50;;;1.40;;
15708;SDS011;7954;51.914;8.420;2023-11-19T01:46:45;2.67;;;1.90;;
15708;SDS011;7954;51.914;8.420;2023-11-19T01:49:16;1.60;;;1.50;;
15708;SDS011;7954;51.914;8.420;2023-11-19T01:51:45;3.40;;;1.40;;
15708;SDS011;7954;51.914;8.420;2023-11-19T01:54:13;1.50;;;1.40;;
15708;SDS011;7954;51.914;8.420;2023-11-19T01:56:42;1.20;;;1.20;;
15708;SDS011;7954;51.914;8.420;2023-11-19T01:59:11;1.47;;;1.30;;
15708;SDS011;7954;51.914;8.420;2023-11-19T02:01:40;3.40;;;1.50;;
15708;SDS011;7954;51.914;8.420;2023-11-19T02:04:10;1.83;;;1.47;;
15708;SDS011;7954;51.914;8.420;2023-11-19T02:06:40;1.40;;;1.30;;
15708;SDS011;7954;51.914;8.420;2023-11-19T02:09:09;1.63;;;1.30;;
15708;SDS011;7954;51.914;8.420;2023-11-19T02:11:36;1.30;;;1.30;;
15708;SDS011;7954;51.914;8.420;2023-11-19T02:14:07;1.60;;;1.50;;
15708;SDS011;7954;51.914;8.420;2023-11-19T02:16:34;1.37;;;1.20;;
15708;SDS011;7954;51.914;8.420;2023-11-19T02:19:02;1.50;;;1.40;;
15708;SDS011;7954;51.914;8.420;2023-11-19T02:21:32;1.60;;;1.50;;
15708;SDS011;7954;51.914;8.420;2023-11-19T02:24:02;1.53;;;1.43;;
15708;SDS011;7954;51.914;8.420;2023-11-19T02:26:37;1.60;;;1.50;;
15708;SDS011;7954;51.914;8.420;2023-11-19T02:29:08;1.60;;;1.50;;
15708;SDS011;7954;51.914;8.420;2023-11-19T02:31:36;1.60;;;1.50;;
15708;SDS011;7954;51.914;8.420;2023-11-19T02:34:04;3.17;;;2.07;;
15708;SDS011;7954;51.914;8.420;2023-11-19T02:36:32;2.00;;;1.90;;
15708;SDS011;7954;51.914;8.420;2023-11-19T02:39:00;1.70;;;1.60;;
15708;SDS011;7954;51.914;8.420;2023-11-19T02:41:28;2.00;;;1.90;;
15708;SDS011;7954;51.914;8.420;2023-11-19T02:43:57;2.30;;;2.10;;
15708;SDS011;7954;51.914;8.420;2023-11-19T02:46:28;2.37;;;2.10;;
15708;SDS011;7954;51.914;8.420;2023-11-19T02:48:56;2.47;;;2.30;;
15708;SDS011;7954;51.914;8.420;2023-11-19T02:51:23;2.17;;;2.07;;
15708;SDS011;7954;51.914;8.420;2023-11-19T02:53:51;2.93;;;2.73;;
15708;SDS011;7954;51.914;8.420;2023-11-19T02:56:19;2.93;;;2.73;;
15708;SDS011;7954;51.914;8.420;2023-11-19T02:58:52;3.30;;;2.97;;
15708;SDS011;7954;51.914;8.420;2023-11-19T03:01:23;3.00;;;2.80;;
15708;SDS011;7954;51.914;8.420;2023-11-19T03:03:59;3.57;;;3.27;;
15708;SDS011;7954;51.914;8.420;2023-11-19T03:06:30;4.07;;;3.70;;
15708;SDS011;7954;51.914;8.420;2023-11-19T03:08:59;3.87;;;3.57;;
15708;SDS011;7954;51.914;8.420;2023-11-19T03:11:32;4.40;;;4.10;;
15708;SDS011;7954;51.914;8.420;2023-11-19T03:14:00;3.80;;;3.47;;
15708;SDS011;7954;51.914;8.420;2023-11-19T03:16:29;4.37;;;4.07;;
15708;SDS011;7954;51.914;8.420;2023-11-19T03:18:59;4.17;;;3.87;;
15708;SDS011;7954;51.914;8.420;2023-11-19T03:21:31;4.50;;;4.10;;
15708;SDS011;7954;51.914;8.420;2023-11-19T03:23:59;5.00;;;4.60;;
15708;SDS011;7954;51.914;8.420;2023-11-19T03:26:27;4.77;;;4.37;;
15708;SDS011;7954;51.914;8.420;2023-11-19T03:28:56;5.00;;;4.50;;
15708;SDS011;7954;51.914;8.420;2023-11-19T03:31:24;4.97;;;4.67;;
15708;SDS011;7954;51.914;8.420;2023-11-19T03:33:52;5.37;;;4.97;;
15708;SDS011;7954;51.914;8.420;2023-11-19T03:36:26;5.17;;;4.77;;
15708;SDS011;7954;51.914;8.420;2023-11-19T03:38:59;4.70;;;4.30;;
15708;SDS011;7954;51.914;8.420;2023-11-19T03:41:26;5.13;;;4.53;;
15708;SDS011;7954;51.914;8.420;2023-11-19T03:43:54;4.73;;;4.33;;
15708;SDS011;7954;51.914;8.420;2023-11-19T03:46:22;5.10;;;4.63;;
15708;SDS011;7954;51.914;8.420;2023-11-19T03:48:50;5.67;;;4.00;;
15708;SDS011;7954;51.914;8.420;2023-11-19T03:51:18;4.30;;;3.60;;
15708;SDS011;7954;51.914;8.420;2023-11-19T03:53:48;4.47;;;4.07;;
15708;SDS011;7954;51.914;8.420;2023-11-19T03:56:16;5.67;;;4.10;;
15708;SDS011;7954;51.914;8.420;2023-11-19T03:58:44;6.00;;;3.80;;
15708;SDS011;7954;51.914;8.420;2023-11-19T04:01:12;4.37;;;3.97;;
15708;SDS011;7954;51.914;8.420;2023-11-19T04:03:40;4.90;;;3.70;;
15708;SDS011;7954;51.914;8.420;2023-11-19T04:06:11;4.63;;;3.27;;
15708;SDS011;7954;51.914;8.420;2023-11-19T04:08:39;5.73;;;3.43;;
15708;SDS011;7954;51.914;8.420;2023-11-19T04:11:08;4.90;;;3.20;;
15708;SDS011;7954;51.914;8.420;2023-11-19T04:13:36;6.07;;;3.30;;
15708;SDS011;7954;51.914;8.420;2023-11-19T04:16:04;4.37;;;3.03;;
15708;SDS011;7954;51.914;8.420;2023-11-19T04:18:33;5.23;;;3.20;;
15708;SDS011;7954;51.914;8.420;2023-11-19T04:21:00;5.77;;;3.73;;
15708;SDS011;7954;51.914;8.420;2023-11-19T04:23:28;5.37;;;2.97;;
15708;SDS011;7954;51.914;8.420;2023-11-19T04:25:56;6.37;;;3.40;;
15708;SDS011;7954;51.914;8.420;2023-11-19T04:28:37;4.43;;;3.00;;
15708;SDS011;7954;51.914;8.420;2023-11-19T04:31:06;6.43;;;3.80;;
15708;SDS011;7954;51.914;8.420;2023-11-19T04:33:35;7.00;;;3.27;;
15708;SDS011;7954;51.914;8.420;2023-11-19T04:36:03;6.63;;;3.07;;
15708;SDS011;7954;51.914;8.420;2023-11-19T04:38:31;4.90;;;3.00;;
15708;SDS011;7954;51.914;8.420;2023-11-19T04:41:00;5.77;;;3.10;;
15708;SDS011;7954;51.914;8.420;2023-11-19T04:43:28;6.13;;;2.67;;
15708;SDS011;7954;51.914;8.420;2023-11-19T04:45:57;7.03;;;2.50;;
15708;SDS011;7954;51.914;8.420;2023-11-19T04:48:25;8.57;;;3.10;;
15708;SDS011;7954;51.914;8.420;2023-11-19T04:50:54;5.73;;;3.10;;
15708;SDS011;7954;51.914;8.420;2023-11-19T04:53:24;10.53;;;3.00;;
15708;SDS011;7954;51.914;8.420;2023-11-19T04:55:52;8.70;;;2.63;;
15708;SDS011;7954;51.914;8.420;2023-11-19T04:58:20;9.20;;;3.57;;
15708;SDS011;7954;51.914;8.420;2023-11-19T05:00:48;11.93;;;3.70;;
15708;SDS011;7954;51.914;8.420;2023-11-19T05:03:17;7.33;;;3.30;;
15708;SDS011;7954;51.914;8.420;2023-11-19T05:05:45;9.03;;;3.30;;
15708;SDS011;7954;51.914;8.420;2023-11-19T05:08:13;6.47;;;3.10;;
15708;SDS011;7954;51.914;8.420;2023-11-19T05:10:41;9.23;;;3.27;;
15708;SDS011;7954;51.914;8.420;2023-11-19T05:13:09;9.10;;;3.33;;
15708;SDS011;7954;51.914;8.420;2023-11-19T05:15:36;13.67;;;3.70;;
15708;SDS011;7954;51.914;8.420;2023-11-19T05:18:04;7.60;;;3.00;;
15708;SDS011;7954;51.914;8.420;2023-11-19T05:20:34;7.33;;;3.00;;
15708;SDS011;7954;51.914;8.420;2023-11-19T05:23:02;8.80;;;3.20;;
15708;SDS011;7954;51.914;8.420;2023-11-19T05:25:30;10.07;;;3.60;;
15708;SDS011;7954;51.914;8.420;2023-11-19T05:27:58;8.40;;;2.97;;
15708;SDS011;7954;51.914;8.420;2023-11-19T05:30:25;8.07;;;2.67;;
15708;SDS011;7954;51.914;8.420;2023-11-19T05:32:53;7.03;;;2.77;;
15708;SDS011;7954;51.914;8.420;2023-11-19T05:35:22;8.50;;;3.10;;
15708;SDS011;7954;51.914;8.420;2023-11-19T05:37:51;8.27;;;3.23;;
15708;SDS011;7954;51.914;8.420;2023-11-19T05:40:19;9.63;;;3.10;;
15708;SDS011;7954;51.914;8.420;2023-11-19T05:42:47;10.07;;;3.77;;
15708;SDS011;7954;51.914;8.420;2023-11-19T05:45:15;11.00;;;4.03;;
15708;SDS011;7954;51.914;8.420;2023-11-19T05:47:43;7.87;;;3.73;;
15708;SDS011;7954;51.914;8.420;2023-11-19T05:50:11;8.00;;;3.80;;
15708;SDS011;7954;51.914;8.420;2023-11-19T05:52:39;6.73;;;3.13;;
15708;SDS011;7954;51.914;8.420;2023-11-19T05:55:08;7.63;;;3.03;;
15708;SDS011;7954;51.914;8.420;2023-11-19T05:57:38;9.37;;;4.00;;
15708;SDS011;7954;51.914;8.420;2023-11-19T06:00:09;6.83;;;3.13;;
15708;SDS011;7954;51.914;8.420;2023-11-19T06:02:39;10.77;;;3.97;;
15708;SDS011;7954;51.914;8.420;2023-11-19T06:05:07;9.97;;;3.77;;
15708;SDS011;7954;51.914;8.420;2023-11-19T06:07:36;8.70;;;3.40;;
15708;SDS011;7954;51.914;8.420;2023-11-19T06:10:05;15.57;;;4.70;;
15708;SDS011;7954;51.914;8.420;2023-11-19T06:12:38;10.37;;;3.70;;
15708;SDS011;7954;51.914;8.420;2023-11-19T06:15:08;12.77;;;4.77;;
15708;SDS011;7954;51.914;8.420;2023-11-19T06:17:36;11.43;;;4.13;;
15708;SDS011;7954;51.914;8.420;2023-11-19T06:20:04;11.77;;;4.10;;
15708;SDS011;7954;51.914;8.420;2023-11-19T06:22:34;11.30;;;4.13;;
15708;SDS011;7954;51.914;8.420;2023-11-19T06:25:02;12.13;;;4.50;;
15708;SDS011;7954;51.914;8.420;2023-11-19T06:27:34;11.43;;;4.30;;
15708;SDS011;7954;51.914;8.420;2023-11-19T06:30:03;8.57;;;3.50;;
15708;SDS011;7954;51.914;8.420;2023-11-19T06:32:32;9.97;;;4.07;;
15708;SDS011;7954;51.914;8.420;2023-11-19T06:35:00;16.80;;;4.93;;
15708;SDS011;7954;51.914;8.420;2023-11-19T06:37:29;11.63;;;4.67;;
15708;SDS011;7954;51.914;8.420;2023-11-19T06:39:57;11.90;;;4.43;;
15708;SDS011;7954;51.914;8.420;2023-11-19T06:42:25;10.47;;;4.53;;
15708;SDS011;7954;51.914;8.420;2023-11-19T06:44:53;12.80;;;4.40;;
15708;SDS011;7954;51.914;8.420;2023-11-19T06:47:26;12.40;;;4.30;;
15708;SDS011;7954;51.914;8.420;2023-11-19T06:49:54;13.10;;;4.90;;
15708;SDS011;7954;51.914;8.420;2023-11-19T06:52:22;8.80;;;4.37;;
15708;SDS011;7954;51.914;8.420;2023-11-19T06:54:51;11.50;;;4.60;;
15708;SDS011;7954;51.914;8.420;2023-11-19T06:57:19;20.23;;;5.60;;
15708;SDS011;7954;51.914;8.420;2023-11-19T06:59:47;16.93;;;4.83;;
15708;SDS011;7954;51.914;8.420;2023-11-19T07:02:14;13.47;;;4.20;;
15708;SDS011;7954;51.914;8.420;2023-11-19T07:04:44;11.87;;;4.63;;
15708;SDS011;7954;51.914;8.420;2023-11-19T07:07:12;15.57;;;5.07;;
15708;SDS011;7954;51.914;8.420;2023-11-19T07:09:41;16.10;;;4.67;;
15708;SDS011;7954;51.914;8.420;2023-11-19T07:12:09;15.10;;;5.10;;
15708;SDS011;7954;51.914;8.420;2023-11-19T07:14:37;16.47;;;5.23;;
15708;SDS011;7954;51.914;8.420;2023-11-19T07:17:05;14.77;;;4.30;;
15708;SDS011;7954;51.914;8.420;2023-11-19T07:19:33;12.87;;;4.50;;
15708;SDS011;7954;51.914;8.420;2023-11-19T07:22:04;13.87;;;4.40;;
15708;SDS011;7954;51.914;8.420;2023-11-19T07:24:34;11.20;;;4.27;;
15708;SDS011;7954;51.914;8.420;2023-11-19T07:27:01;15.27;;;4.93;;
15708;SDS011;7954;51.914;8.420;2023-11-19T07:29:30;15.03;;;4.20;;
15708;SDS011;7954;51.914;8.420;2023-11-19T07:31:58;14.60;;;4.80;;
15708;SDS011;7954;51.914;8.420;2023-11-19T07:34:27;11.50;;;4.83;;
15708;SDS011;7954;51.914;8.420;2023-11-19T07:36:55;15.70;;;5.03;;
15708;SDS011;7954;51.914;8.420;2023-11-19T07:39:27;14.07;;;4.80;;
15708;SDS011;7954;51.914;8.420;2023-11-19T07:41:55;15.10;;;4.40;;
15708;SDS011;7954;51.914;8.420;2023-11-19T07:44:23;16.30;;;5.30;;
15708;SDS011;7954;51.914;8.420;2023-11-19T07:46:51;14.10;;;4.60;;
15708;SDS011;7954;51.914;8.420;2023-11-19T07:49:20;16.53;;;5.10;;
15708;SDS011;7954;51.914;8.420;2023-11-19T07:51:48;14.03;;;5.57;;
15708;SDS011;7954;51.914;8.420;2023-11-19T07:54:16;12.10;;;4.57;;
15708;SDS011;7954;51.914;8.420;2023-11-19T07:56:45;14.07;;;4.93;;
15708;SDS011;7954;51.914;8.420;2023-11-19T07:59:14;12.77;;;4.63;;
15708;SDS011;7954;51.914;8.420;2023-11-19T08:01:42;16.60;;;5.90;;
15708;SDS011;7954;51.914;8.420;2023-11-19T08:04:10;17.70;;;5.37;;
15708;SDS011;7954;51.914;8.420;2023-11-19T08:06:38;12.50;;;4.63;;
15708;SDS011;7954;51.914;8.420;2023-11-19T08:09:06;12.33;;;4.30;;
15708;SDS011;7954;51.914;8.420;2023-11-19T08:11:40;12.50;;;4.80;;
15708;SDS011;7954;51.914;8.420;2023-11-19T08:14:10;12.23;;;4.70;;
15708;SDS011;7954;51.914;8.420;2023-11-19T08:16:39;16.17;;;5.47;;
15708;SDS011;7954;51.914;8.420;2023-11-19T08:19:06;16.03;;;5.53;;
15708;SDS011;7954;51.914;8.420;2023-11-19T08:21:34;14.63;;;5.00;;
15708;SDS011;7954;51.914;8.420;2023-11-19T08:24:03;14.97;;;4.60;;
15708;SDS011;7954;51.914;8.420;2023-11-19T08:26:30;14.13;;;4.23;;
15708;SDS011;7954;51.914;8.420;2023-11-19T08:28:58;11.37;;;4.80;;
15708;SDS011;7954;51.914;8.420;2023-11-19T08:31:27;15.97;;;4.47;;
15708;SDS011;7954;51.914;8.420;2023-11-19T08:33:55;11.90;;;4.83;;
15708;SDS011;7954;51.914;8.420;2023-11-19T08:36:23;15.37;;;5.17;;
15708;SDS011;7954;51.914;8.420;2023-11-19T08:38:51;12.13;;;4.20;;
15708;SDS011;7954;51.914;8.420;2023-11-19T08:41:19;16.93;;;5.50;;
15708;SDS011;7954;51.914;8.420;2023-11-19T08:43:46;20.33;;;6.43;;
15708;SDS011;7954;51.914;8.420;2023-11-19T08:46:15;15.00;;;4.70;;
15708;SDS011;7954;51.914;8.420;2023-11-19T08:48:44;16.70;;;5.47;;
15708;SDS011;7954;51.914;8.420;2023-11-19T08:51:12;12.13;;;4.77;;
15708;SDS011;7954;51.914;8.420;2023-11-19T08:53:40;17.73;;;6.07;;
15708;SDS011;7954;51.914;8.420;2023-11-19T08:56:08;15.97;;;5.43;;
15708;SDS011;7954;51.914;8.420;2023-11-19T08:58:36;17.97;;;6.07;;
15708;SDS011;7954;51.914;8.420;2023-11-19T09:01:05;16.20;;;5.43;;
15708;SDS011;7954;51.914;8.420;2023-11-19T09:03:33;17.33;;;6.07;;
15708;SDS011;7954;51.914;8.420;2023-11-19T09:06:03;18.87;;;5.03;;
15708;SDS011;7954;51.914;8.420;2023-11-19T09:08:31;17.37;;;5.23;;
15708;SDS011;7954;51.914;8.420;2023-11-19T09:10:58;13.93;;;5.50;;
15708;SDS011;7954;51.914;8.420;2023-11-19T09:13:27;15.43;;;4.87;;
15708;SDS011;7954;51.914;8.420;2023-11-19T09:15:55;14.30;;;4.57;;
15708;SDS011;7954;51.914;8.420;2023-11-19T09:18:29;19.30;;;5.83;;
15708;SDS011;7954;51.914;8.420;2023-11-19T09:20:58;16.70;;;6.20;;
15708;SDS011;7954;51.914;8.420;2023-11-19T09:23:28;16.97;;;5.10;;
15708;SDS011;7954;51.914;8.420;2023-11-19T09:25:59;15.77;;;5.37;;
15708;SDS011;7954;51.914;8.420;2023-11-19T09:28:27;12.40;;;4.37;;
15708;SDS011;7954;51.914;8.420;2023-11-19T09:30:55;14.20;;;5.10;;
15708;SDS011;7954;51.914;8.420;2023-11-19T09:33:23;16.83;;;5.63;;
15708;SDS011;7954;51.914;8.420;2023-11-19T09:35:51;15.23;;;4.83;;
15708;SDS011;7954;51.914;8.420;2023-11-19T09:38:19;12.67;;;4.93;;
15708;SDS011;7954;51.914;8.420;2023-11-19T09:40:48;12.10;;;4.10;;
15708;SDS011;7954;51.914;8.420;2023-11-19T09:43:16;16.13;;;5.07;;
15708;SDS011;7954;51.914;8.420;2023-11-19T09:45:47;14.10;;;4.80;;
15708;SDS011;7954;51.914;8.420;2023-11-19T09:48:16;12.37;;;4.83;;
15708;SDS011;7954;51.914;8.420;2023-11-19T09:50:44;12.20;;;4.40;;
15708;SDS011;7954;51.914;8.420;2023-11-19T09:53:13;14.70;;;5.23;;
15708;SDS011;7954;51.914;8.420;2023-11-19T09:55:42;14.03;;;4.57;;
15708;SDS011;7954;51.914;8.420;2023-11-19T09:58:12;15.67;;;5.17;;
15708;SDS011;7954;51.914;8.420;2023-11-19T10:00:41;11.17;;;4.73;;
15708;SDS011;7954;51.914;8.420;2023-11-19T10:03:12;12.97;;;4.90;;
15708;SDS011;7954;51.914;8.420;2023-11-19T10:05:40;17.73;;;5.33;;
15708;SDS011;7954;51.914;8.420;2023-11-19T10:08:08;13.83;;;4.50;;
15708;SDS011;7954;51.914;8.420;2023-11-19T10:10:37;17.60;;;5.60;;
15708;SDS011;7954;51.914;8.420;2023-11-19T10:13:05;12.67;;;4.53;;
15708;SDS011;7954;51.914;8.420;2023-11-19T10:15:37;17.70;;;6.00;;
15708;SDS011;7954;51.914;8.420;2023-11-19T10:18:04;16.73;;;5.27;;
15708;SDS011;7954;51.914;8.420;2023-11-19T10:20:35;17.43;;;6.27;;
15708;SDS011;7954;51.914;8.420;2023-11-19T10:23:04;13.53;;;4.43;;
15708;SDS011;7954;51.914;8.420;2023-11-19T10:25:31;15.73;;;5.70;;
15708;SDS011;7954;51.914;8.420;2023-11-19T10:28:00;18.60;;;5.87;;
15708;SDS011;7954;51.914;8.420;2023-11-19T10:30:28;15.67;;;4.90;;
15708;SDS011;7954;51.914;8.420;2023-11-19T10:33:05;18.63;;;5.50;;
15708;SDS011;7954;51.914;8.420;2023-11-19T10:35:34;15.30;;;5.57;;
15708;SDS011;7954;51.914;8.420;2023-11-19T10:38:03;15.83;;;4.93;;
15708;SDS011;7954;51.914;8.420;2023-11-19T10:40:40;16.17;;;5.00;;
15708;SDS011;7954;51.914;8.420;2023-11-19T10:43:08;12.13;;;4.47;;
15708;SDS011;7954;51.914;8.420;2023-11-19T10:45:36;15.23;;;5.43;;
15708;SDS011;7954;51.914;8.420;2023-11-19T10:48:07;13.57;;;4.53;;
15708;SDS011;7954;51.914;8.420;2023-11-19T10:50:35;11.97;;;4.10;;
15708;SDS011;7954;51.914;8.420;2023-11-19T10:53:03;14.37;;;4.87;;
15708;SDS011;7954;51.914;8.420;2023-11-19T10:55:31;11.70;;;4.60;;
15708;SDS011;7954;51.914;8.420;2023-11-19T10:58:02;14.50;;;5.07;;
15708;SDS011;7954;51.914;8.420;2023-11-19T11:00:33;16.27;;;5.30;;
15708;SDS011;7954;51.914;8.420;2023-11-19T11:03:02;15.60;;;5.57;;
15708;SDS011;7954;51.914;8.420;2023-11-19T11:05:35;16.73;;;5.97;;
15708;SDS011;7954;51.914;8.420;2023-11-19T11:08:06;12.13;;;4.80;;
15708;SDS011;7954;51.914;8.420;2023-11-19T11:10:35;12.80;;;4.70;;
15708;SDS011;7954;51.914;8.420;2023-11-19T11:13:03;13.37;;;4.50;;
15708;SDS011;7954;51.914;8.420;2023-11-19T11:15:33;10.50;;;4.73;;
15708;SDS011;7954;51.914;8.420;2023-11-19T11:18:02;14.40;;;5.43;;
15708;SDS011;7954;51.914;8.420;2023-11-19T11:20:31;13.07;;;5.20;;
15708;SDS011;7954;51.914;8.420;2023-11-19T11:23:06;15.07;;;4.70;;
15708;SDS011;7954;51.914;8.420;2023-11-19T11:25:40;15.43;;;5.20;;
15708;SDS011;7954;51.914;8.420;2023-11-19T11:28:13;15.37;;;4.57;;
15708;SDS011;7954;51.914;8.420;2023-11-19T11:30:53;14.97;;;4.80;;
15708;SDS011;7954;51.914;8.420;2023-11-19T11:33:29;14.20;;;5.17;;
15708;SDS011;7954;51.914;8.420;2023-11-19T11:36:02;16.90;;;5.57;;
15708;SDS011;7954;51.914;8.420;2023-11-19T11:38:36;15.37;;;5.40;;
15708;SDS011;7954;51.914;8.420;2023-11-19T11:41:14;14.47;;;5.37;;
15708;SDS011;7954;51.914;8.420;2023-11-19T11:43:45;14.17;;;4.93;;
15708;SDS011;7954;51.914;8.420;2023-11-19T11:49:00;17.20;;;5.30;;
15708;SDS011;7954;51.914;8.420;2023-11-19T11:54:25;14.33;;;5.10;;
15708;SDS011;7954;51.914;8.420;2023-11-19T11:57:03;12.37;;;5.00;;
15708;SDS011;7954;51.914;8.420;2023-11-19T11:59:45;15.53;;;4.70;;
15708;SDS011;7954;51.914;8.420;2023-11-19T12:02:14;14.07;;;4.50;;
15708;SDS011;7954;51.914;8.420;2023-11-19T12:04:43;11.50;;;4.00;;
15708;SDS011;7954;51.914;8.420;2023-11-19T12:07:15;15.77;;;4.80;;
15708;SDS011;7954;51.914;8.420;2023-11-19T12:09:48;16.70;;;5.13;;
15708;SDS011;7954;51.914;8.420;2023-11-19T12:12:22;13.50;;;4.87;;
15708;SDS011;7954;51.914;8.420;2023-11-19T12:15:01;19.17;;;6.27;;
15708;SDS011;7954;51.914;8.420;2023-11-19T12:20:25;11.73;;;4.23;;
15708;SDS011;7954;51.914;8.420;2023-11-19T12:22:55;15.07;;;5.30;;
15708;SDS011;7954;51.914;8.420;2023-11-19T12:25:25;17.27;;;4.77;;
15708;SDS011;7954;51.914;8.420;2023-11-19T12:27:54;13.03;;;4.70;;
15708;SDS011;7954;51.914;8.420;2023-11-19T12:30:22;14.33;;;4.10;;
15708;SDS011;7954;51.914;8.420;2023-11-19T12:32:53;13.97;;;4.97;;
15708;SDS011;7954;51.914;8.420;2023-11-19T12:35:22;12.00;;;4.80;;
15708;SDS011;7954;51.914;8.420;2023-11-19T12:37:50;15.03;;;5.30;;
15708;SDS011;7954;51.914;8.420;2023-11-19T12:40:19;14.17;;;5.47;;
15708;SDS011;7954;51.914;8.420;2023-11-19T12:42:49;14.60;;;4.70;;
15708;SDS011;7954;51.914;8.420;2023-11-19T12:45:17;12.40;;;4.50;;
15708;SDS011;7954;51.914;8.420;2023-11-19T12:47:47;16.20;;;5.40;;
15708;SDS011;7954;51.914;8.420;2023-11-19T12:50:17;12.47;;;5.23;;
15708;SDS011;7954;51.914;8.420;2023-11-19T12:52:55;12.80;;;4.60;;
15708;SDS011;7954;51.914;8.420;2023-11-19T12:55:26;16.37;;;5.40;;
15708;SDS011;7954;51.914;8.420;2023-11-19T12:57:57;10.57;;;3.90;;
15708;SDS011;7954;51.914;8.420;2023-11-19T13:00:26;13.33;;;4.00;;
15708;SDS011;7954;51.914;8.420;2023-11-19T13:02:55;11.40;;;3.97;;
15708;SDS011;7954;51.914;8.420;2023-11-19T13:05:23;11.53;;;4.40;;
15708;SDS011;7954;51.914;8.420;2023-11-19T13:07:59;14.43;;;4.43;;
15708;SDS011;7954;51.914;8.420;2023-11-19T13:10:27;12.57;;;5.40;;
15708;SDS011;7954;51.914;8.420;2023-11-19T13:13:01;12.97;;;4.87;;
15708;SDS011;7954;51.914;8.420;2023-11-19T13:15:28;14.07;;;5.27;;
15708;SDS011;7954;51.914;8.420;2023-11-19T13:17:56;13.20;;;4.80;;
15708;SDS011;7954;51.914;8.420;2023-11-19T13:20:24;11.73;;;4.90;;
15708;SDS011;7954;51.914;8.420;2023-11-19T13:22:56;10.13;;;4.43;;
15708;SDS011;7954;51.914;8.420;2023-11-19T13:25:24;12.63;;;4.53;;
15708;SDS011;7954;51.914;8.420;2023-11-19T13:27:52;9.97;;;4.37;;
15708;SDS011;7954;51.914;8.420;2023-11-19T13:30:22;12.77;;;5.20;;
15708;SDS011;7954;51.914;8.420;2023-11-19T13:32:53;12.37;;;4.77;;
15708;SDS011;7954;51.914;8.420;2023-11-19T13:35:23;11.77;;;4.53;;
15708;SDS011;7954;51.914;8.420;2023-11-19T13:37:51;12.47;;;4.60;;
15708;SDS011;7954;51.914;8.420;2023-11-19T13:40:20;11.70;;;4.43;;
15708;SDS011;7954;51.914;8.420;2023-11-19T13:42:50;12.20;;;5.13;;
15708;SDS011;7954;51.914;8.420;2023-11-19T13:45:18;11.60;;;4.57;;
15708;SDS011;7954;51.914;8.420;2023-11-19T13:47:49;10.73;;;4.80;;
15708;SDS011;7954;51.914;8.420;2023-11-19T13:50:17;13.73;;;5.03;;
15708;SDS011;7954;51.914;8.420;2023-11-19T13:52:45;9.77;;;4.23;;
15708;SDS011;7954;51.914;8.420;2023-11-19T13:55:14;10.03;;;4.67;;
15708;SDS011;7954;51.914;8.420;2023-11-19T13:57:42;9.50;;;4.57;;
15708;SDS011;7954;51.914;8.420;2023-11-19T14:00:12;14.13;;;5.27;;
15708;SDS011;7954;51.914;8.420;2023-11-19T14:02:43;11.77;;;4.50;;
15708;SDS011;7954;51.914;8.420;2023-11-19T14:05:13;10.57;;;4.47;;
15708;SDS011;7954;51.914;8.420;2023-11-19T14:07:41;12.03;;;4.47;;
15708;SDS011;7954;51.914;8.420;2023-11-19T14:10:10;12.30;;;4.30;;
15708;SDS011;7954;51.914;8.420;2023-11-19T14:12:38;11.70;;;3.97;;
15708;SDS011;7954;51.914;8.420;2023-11-19T14:15:06;11.23;;;4.60;;
15708;SDS011;7954;51.914;8.420;2023-11-19T14:17:35;14.17;;;4.37;;
15708;SDS011;7954;51.914;8.420;2023-11-19T14:20:04;14.83;;;4.90;;
15708;SDS011;7954;51.914;8.420;2023-11-19T14:22:41;12.63;;;4.10;;
15708;SDS011;7954;51.914;8.420;2023-11-19T14:25:09;10.03;;;3.53;;
15708;SDS011;7954;51.914;8.420;2023-11-19T14:27:39;10.57;;;4.03;;
15708;SDS011;7954;51.914;8.420;2023-11-19T14:30:09;11.30;;;4.63;;
15708;SDS011;7954;51.914;8.420;2023-11-19T14:32:37;11.20;;;3.33;;
15708;SDS011;7954;51.914;8.420;2023-11-19T14:35:06;10.30;;;3.70;;
15708;SDS011;7954;51.914;8.420;2023-11-19T14:37:34;9.33;;;3.77;;
15708;SDS011;7954;51.914;8.420;2023-11-19T14:40:05;12.17;;;4.53;;
15708;SDS011;7954;51.914;8.420;2023-11-19T14:42:35;11.33;;;4.00;;
15708;SDS011;7954;51.914;8.420;2023-11-19T14:45:03;8.13;;;3.30;;
15708;SDS011;7954;51.914;8.420;2023-11-19T14:47:31;7.90;;;3.63;;
15708;SDS011;7954;51.914;8.420;2023-11-19T14:50:00;13.63;;;4.77;;
15708;SDS011;7954;51.914;8.420;2023-11-19T14:52:29;11.13;;;3.87;;
15708;SDS011;7954;51.914;8.420;2023-11-19T14:54:57;9.53;;;3.93;;
15708;SDS011;7954;51.914;8.420;2023-11-19T14:57:27;6.53;;;3.10;;
15708;SDS011;7954;51.914;8.420;2023-11-19T14:59:56;11.57;;;3.90;;
15708;SDS011;7954;51.914;8.420;2023-11-19T15:02:25;10.97;;;3.83;;
15708;SDS011;7954;51.914;8.420;2023-11-19T15:04:52;10.20;;;3.60;;
15708;SDS011;7954;51.914;8.420;2023-11-19T15:07:21;8.80;;;2.90;;
15708;SDS011;7954;51.914;8.420;2023-11-19T15:09:49;9.07;;;3.63;;
15708;SDS011;7954;51.914;8.420;2023-11-19T15:12:17;10.00;;;3.73;;
15708;SDS011;7954;51.914;8.420;2023-11-19T15:14:46;11.07;;;4.10;;